Time;durP1;ratioP1;P1;durP2;ratioP2;P2;SDS_P1;SDS_P2;PMS_P1;PMS_P2;Temp;Humidity;BMP_temperature;BMP_pressure;BME280_temperature;BME280_humidity;BME280_pressure;Samples;Min_cycle;Max_cycle;Signal;HPM_P1;HPM_P2
2022/08/18 00:00:32;;;;;;;3.28;2.55;;;25.90;72.20;;;;;;5053978;28;20025;-52
2022/08/18 00:03:06;;;;;;;2.92;2.40;;;25.90;68.00;;;;;;5053863;28;20064;-50
2022/08/18 00:05:32;;;;;;;2.72;2.53;;;;;;;;;;5054031;28;20025;-51
2022/08/18 00:07:58;;;;;;;3.00;2.80;;;;;;;;;;5053876;28;20029;-52
2022/08/18 00:10:25;;;;;;;2.80;2.60;;;25.70;73.50;;;;;;5053851;28;20482;-48
2022/08/18 00:12:51;;;;;;;2.55;2.28;;;;;;;;;;5053831;28;20028;-52
2022/08/18 00:15:17;;;;;;;2.80;2.60;;;25.60;70.80;;;;;;5053800;28;20104;-50
2022/08/18 00:17:43;;;;;;;2.55;2.35;;;;;;;;;;5053678;28;20075;-51
2022/08/18 00:20:13;;;;;;;2.65;2.45;;;25.90;73.60;;;;;;5053645;28;20036;-52
2022/08/18 00:22:39;;;;;;;2.50;2.30;;;;;;;;;;5053579;28;20028;-48
2022/08/18 00:25:06;;;;;;;3.17;2.58;;;25.80;73.60;;;;;;5053557;28;20032;-51
2022/08/18 00:27:32;;;;;;;2.65;2.45;;;;;;;;;;5053522;28;20025;-50
2022/08/18 00:30:01;;;;;;;2.45;2.25;;;25.80;73.40;;;;;;5053500;28;20029;-50
2022/08/18 00:32:32;;;;;;;2.28;2.08;;;25.80;68.00;;;;;;5053462;28;20024;-50
2022/08/18 00:35:08;;;;;;;2.72;2.53;;;25.80;73.60;;;;;;5053417;28;20027;-49
2022/08/18 00:37:35;;;;;;;2.60;2.40;;;;;;;;;;5053402;28;20079;-48
2022/08/18 00:40:02;;;;;;;3.75;2.55;;;;;;;;;;5053257;28;20028;-48
2022/08/18 00:42:28;;;;;;;2.45;2.25;;;25.80;72.60;;;;;;5053191;28;20037;-51
2022/08/18 00:44:55;;;;;;;2.80;2.60;;;25.80;73.60;;;;;;5053140;28;20017;-49
2022/08/18 00:47:21;;;;;;;2.35;2.25;;;;;;;;;;5053163;28;20472;-49
2022/08/18 00:49:50;;;;;;;2.20;2.10;;;25.80;73.60;;;;;;5053064;28;20104;-49
2022/08/18 00:52:17;;;;;;;3.17;2.20;;;;;;;;;;5052342;28;20096;-49
2022/08/18 00:54:44;;;;;;;4.25;2.20;;;25.60;73.10;;;;;;5052991;28;20021;-50
2022/08/18 00:57:11;;;;;;;2.30;2.10;;;;;;;;;;5052988;28;20029;-47
2022/08/18 00:59:44;;;;;;;2.63;2.20;;;25.80;73.40;;;;;;5052936;28;20025;-48
2022/08/18 01:02:29;;;;;;;2.35;2.20;;;25.60;67.80;;;;;;5052795;28;20061;-50
2022/08/18 01:05:18;;;;;;;3.17;2.40;;;25.80;67.90;;;;;;5052746;28;20041;-48
2022/08/18 01:07:46;;;;;;;2.50;2.15;;;25.80;73.40;;;;;;5052821;28;20487;-48
2022/08/18 01:10:18;;;;;;;2.63;2.42;;;25.80;68.00;;;;;;5052757;28;20115;-48
2022/08/18 01:12:44;;;;;;;3.85;2.42;;;;;;;;;;5052733;28;20020;-49
2022/08/18 01:15:12;;;;;;;2.58;2.33;;;25.90;73.50;;;;;;5052645;28;20035;-50
2022/08/18 01:23:18;;;;;;;2.35;2.20;;;25.70;73.40;;;;;;5052838;28;20087;-50
2022/08/18 01:26:00;;;;;;;2.63;2.42;;;25.70;72.30;;;;;;5052437;28;20024;-47
2022/08/18 01:28:41;;;;;;;2.20;2.10;;;25.70;68.10;;;;;;5052754;28;20033;-48
2022/08/18 01:31:08;;;;;;;2.42;2.20;;;25.70;73.50;;;;;;5052341;28;20021;-52
2022/08/18 01:33:37;;;;;;;2.83;2.60;;;25.70;73.50;;;;;;5052392;28;20040;-51
2022/08/18 01:36:15;;;;;;;2.35;2.15;;;25.70;68.00;;;;;;5052582;28;20017;-48
2022/08/18 01:38:41;;;;;;;2.72;2.53;;;;;;;;;;5052297;28;20025;-48
2022/08/18 01:41:07;;;;;;;2.75;2.45;;;;;;;;;;5052093;28;20044;-49
2022/08/18 01:43:35;;;;;;;2.42;2.22;;;25.60;73.50;;;;;;5052178;28;20404;-49
2022/08/18 01:46:03;;;;;;;2.35;2.20;;;25.70;71.10;;;;;;5052141;28;20021;-47
2022/08/18 01:48:32;;;;;;;2.33;2.13;;;;;;;;;;5052152;28;20029;-49
2022/08/18 01:50:59;;;;;;;2.80;2.58;;;;;;;;;;5052507;28;20074;-47
2022/08/18 01:53:26;;;;;;;2.35;2.15;;;;;;;;;;5052127;28;20029;-47
2022/08/18 01:55:52;;;;;;;2.60;2.40;;;;;;;;;;5052347;28;20033;-50
2022/08/18 01:58:26;;;;;;;2.80;2.47;;;;;;;;;;5051965;28;20025;-51
2022/08/18 02:01:00;;;;;;;2.58;2.22;;;25.70;68.00;;;;;;5051999;28;20037;-48
2022/08/18 02:03:30;;;;;;;2.75;2.20;;;25.70;73.40;;;;;;5055509;28;20045;-51
2022/08/18 02:06:01;;;;;;;2.95;2.40;;;25.60;73.40;;;;;;5058649;28;20100;-47
2022/08/18 02:08:27;;;;;;;2.20;2.10;;;;;;;;;;5058556;28;20112;-51
2022/08/18 02:10:53;;;;;;;3.53;2.55;;;;;;;;;;5058699;28;20108;-51
2022/08/18 02:13:19;;;;;;;3.00;2.30;;;;;;;;;;5058613;28;20075;-48
2022/08/18 02:15:45;;;;;;;2.22;2.03;;;;;;;;;;5058587;28;20025;-51
2022/08/18 02:18:19;;;;;;;2.25;2.05;;;25.60;68.10;;;;;;5058473;28;20029;-48
2022/08/18 02:20:46;;;;;;;2.67;2.45;;;;;;;;;;5058447;28;20482;-48
2022/08/18 02:23:12;;;;;;;2.38;2.17;;;;;;;;;;5058497;28;20033;-49
2022/08/18 02:25:38;;;;;;;2.60;2.22;;;;;;;;;;5058415;28;20057;-48
2022/08/18 02:28:04;;;;;;;2.67;2.25;;;25.50;72.60;;;;;;5058438;28;20118;-48
2022/08/18 02:30:30;;;;;;;2.88;2.67;;;;;;;;;;5058483;28;20438;-49
2022/08/18 02:32:57;;;;;;;2.70;2.42;;;;;;;;;;5058426;28;20099;-50
2022/08/18 02:35:24;;;;;;;3.45;2.53;;;;;;;;;;5058389;28;20103;-51
2022/08/18 02:37:50;;;;;;;3.08;2.20;;;;;;;;;;5058339;28;20515;-52
2022/08/18 02:40:16;;;;;;;2.30;2.10;;;25.50;71.20;;;;;;5058251;28;20025;-51
2022/08/18 02:42:44;;;;;;;2.20;1.98;;;25.60;73.50;;;;;;5058309;28;20104;-51
2022/08/18 02:45:11;;;;;;;2.40;1.83;;;;;;;;;;5058329;28;20032;-48
2022/08/18 02:47:38;;;;;;;2.53;2.33;;;;;;;;;;5058334;28;20029;-49
2022/08/18 02:50:05;;;;;;;2.63;2.42;;;25.50;71.90;;;;;;5058362;28;20071;-49
2022/08/18 02:52:34;;;;;;;2.40;2.20;;;;;;;;;;5058501;28;20029;-48
2022/08/18 02:55:03;;;;;;;2.17;2.08;;;25.50;70.20;;;;;;5058361;28;20083;-46
2022/08/18 02:57:30;;;;;;;2.17;2.03;;;;;;;;;;5058190;28;20078;-49
2022/08/18 02:59:56;;;;;;;4.20;2.58;;;;;;;;;;5058284;28;20096;-48
2022/08/18 03:02:22;;;;;;;2.88;2.53;;;;;;;;;;5058010;28;20033;-49
2022/08/18 03:04:50;;;;;;;2.67;2.20;;;;;;;;;;5058085;28;20103;-48
2022/08/18 03:07:16;;;;;;;4.45;2.50;;;;;;;;;;5040286;28;20108;-50
2022/08/18 03:09:43;;;;;;;2.30;2.10;;;;;;;;;;5058080;28;20074;-49
2022/08/18 03:12:09;;;;;;;2.42;2.22;;;;;;;;;;5058114;28;20036;-50
2022/08/18 03:14:36;;;;;;;2.40;2.20;;;25.50;73.30;;;;;;5055901;28;20033;-49
2022/08/18 03:17:04;;;;;;;2.67;2.47;;;25.50;73.30;;;;;;5054913;28;20094;-49
2022/08/18 03:19:31;;;;;;;2.50;2.30;;;;;;;;;;5054808;28;20403;-47
2022/08/18 03:21:58;;;;;;;4.22;2.63;;;25.50;73.20;;;;;;5054720;28;20037;-51
2022/08/18 03:24:27;;;;;;;3.28;2.53;;;25.50;73.30;;;;;;5054786;28;20025;-48
2022/08/18 03:26:55;;;;;;;2.27;2.07;;;25.50;72.30;;;;;;5054741;28;20031;-51
2022/08/18 03:29:22;;;;;;;3.17;2.58;;;25.40;73.20;;;;;;5054612;28;20106;-49
2022/08/18 03:31:49;;;;;;;2.40;2.20;;;25.50;71.40;;;;;;5054612;28;20391;-48
2022/08/18 03:34:18;;;;;;;3.20;2.47;;;25.50;72.80;;;;;;5054641;28;20031;-48
2022/08/18 03:36:44;;;;;;;3.10;2.90;;;;;;;;;;5054540;28;20017;-51
2022/08/18 03:39:12;;;;;;;2.33;2.13;;;25.50;73.20;;;;;;5054492;28;20120;-48
2022/08/18 03:41:42;;;;;;;2.60;2.40;;;25.70;73.50;;;;;;5054368;28;20059;-50
2022/08/18 03:44:08;;;;;;;3.08;2.50;;;;;;;;;;5054552;28;20104;-49
2022/08/18 03:46:34;;;;;;;2.65;2.30;;;;;;;;;;5054284;28;20055;-48
2022/08/18 03:49:00;;;;;;;3.00;2.70;;;;;;;;;;5054320;28;20491;-47
2022/08/18 03:51:30;;;;;;;2.45;2.25;;;25.50;73.30;;;;;;5054229;28;20021;-48
2022/08/18 03:53:59;;;;;;;3.17;2.50;;;25.40;73.40;;;;;;5054205;28;20388;-48
2022/08/18 03:56:27;;;;;;;3.05;2.30;;;25.50;73.30;;;;;;5036215;28;20029;-48
2022/08/18 03:59:00;;;;;;;2.50;2.30;;;25.40;73.20;;;;;;5054093;28;20013;-49
2022/08/18 04:01:30;;;;;;;2.83;2.55;;;25.60;73.50;;;;;;5053989;28;20104;-47
2022/08/18 04:04:01;;;;;;;2.45;2.25;;;25.40;73.40;;;;;;5053930;28;20399;-48
2022/08/18 04:06:42;;;;;;;2.72;2.53;;;25.40;73.30;;;;;;5053999;28;20056;-46
2022/08/18 04:09:12;;;;;;;3.75;2.13;;;25.40;73.40;;;;;;5053947;28;20553;-47
2022/08/18 04:11:42;;;;;;;2.60;2.38;;;25.40;73.10;;;;;;5053794;28;20033;-48
2022/08/18 04:14:08;;;;;;;2.40;2.20;;;;;;;;;;5035926;28;20480;-47
2022/08/18 04:16:34;;;;;;;2.30;2.10;;;;;;;;;;5053776;28;20096;-46
2022/08/18 04:19:02;;;;;;;4.30;2.30;;;;;;;;;;5053773;28;20033;-47
2022/08/18 04:21:33;;;;;;;2.75;2.15;;;25.40;73.00;;;;;;5053637;28;20033;-48
2022/08/18 04:24:02;;;;;;;2.33;2.10;;;25.40;73.10;;;;;;5053683;28;20045;-48
2022/08/18 04:26:28;;;;;;;2.50;2.30;;;;;;;;;;5052475;28;20051;-46
2022/08/18 04:28:54;;;;;;;2.35;2.17;;;;;;;;;;5053502;28;20543;-47
2022/08/18 04:31:23;;;;;;;2.25;2.05;;;;;;;;;;5053472;28;20060;-46
2022/08/18 04:33:49;;;;;;;2.30;2.10;;;25.30;71.20;;;;;;5053454;28;20024;-48
2022/08/18 04:36:16;;;;;;;2.75;2.30;;;;;;;;;;5053418;28;20104;-47
2022/08/18 04:38:42;;;;;;;2.85;2.10;;;;;;;;;;5053367;28;20021;-47
2022/08/18 04:41:12;;;;;;;3.05;2.40;;;25.30;73.20;;;;;;5053239;28;20043;-47
2022/08/18 04:43:39;;;;;;;2.70;2.50;;;25.90;71.60;;;;;;5053262;28;20044;-47
2022/08/18 04:46:05;;;;;;;4.00;2.30;;;;;;;;;;5053031;28;20037;-48
2022/08/18 04:48:39;;;;;;;2.40;2.20;;;25.30;73.20;;;;;;5053259;28;20021;-48
2022/08/18 04:51:08;;;;;;;2.45;2.25;;;25.20;73.20;;;;;;5053143;28;20028;-50
2022/08/18 04:53:46;;;;;;;3.03;2.28;;;25.30;71.30;;;;;;5053096;28;20096;-47
2022/08/18 04:56:26;;;;;;;2.10;1.90;;;25.40;67.80;;;;;;5053143;28;20471;-46
2022/08/18 04:58:52;;;;;;;2.28;2.08;;;;;;;;;;5053079;28;20025;-48
2022/08/18 05:01:20;;;;;;;2.50;2.30;;;25.30;73.10;;;;;;5052783;28;20036;-48
2022/08/18 05:03:46;;;;;;;2.28;2.08;;;;;;;;;;5052702;28;20478;-47
2022/08/18 05:06:13;;;;;;;4.05;2.45;;;;;;;;;;5052835;28;20029;-46
2022/08/18 05:08:39;;;;;;;2.38;2.17;;;;;;;;;;5052831;28;20104;-48
2022/08/18 05:11:05;;;;;;;2.58;2.20;;;;;;;;;;5052814;28;20013;-47
2022/08/18 05:13:31;;;;;;;2.50;2.30;;;;;;;;;;5052759;28;20052;-46
2022/08/18 05:16:02;;;;;;;3.70;2.17;;;25.30;73.00;;;;;;5052660;28;20021;-48
2022/08/18 05:18:28;;;;;;;2.10;1.88;;;;;;;;;;5052708;28;20024;-49
2022/08/18 05:20:55;;;;;;;2.60;2.00;;;25.40;73.20;;;;;;5034568;28;20036;-45
2022/08/18 05:23:21;;;;;;;4.00;2.05;;;25.10;69.90;;;;;;5052521;28;20479;-47
2022/08/18 05:25:48;;;;;;;2.78;2.28;;;;;;;;;;5052549;28;20071;-48
2022/08/18 05:28:14;;;;;;;4.70;2.00;;;;;;;;;;5052389;28;20032;-47
2022/08/18 05:30:41;;;;;;;4.07;2.08;;;25.30;73.30;;;;;;5052398;28;20033;-47
2022/08/18 05:33:09;;;;;;;2.20;2.00;;;;;;;;;;5052395;28;20135;-47
2022/08/18 05:35:45;;;;;;;2.13;1.95;;;25.30;67.90;;;;;;5052396;28;20108;-50
2022/08/18 05:38:34;;;;;;;2.15;1.98;;;25.30;67.70;;;;;;5051936;28;20028;-50
2022/08/18 05:41:21;;;;;;;2.40;2.08;;;25.30;67.40;;;;;;5052167;28;20515;-47
2022/08/18 05:43:47;;;;;;;2.25;2.05;;;;;;;;;;5052366;28;20076;-48
2022/08/18 05:46:15;;;;;;;2.65;2.00;;;25.30;71.80;;;;;;5052104;28;20021;-50
2022/08/18 05:48:41;;;;;;;2.33;2.13;;;;;;;;;;5052135;28;20491;-48
2022/08/18 05:51:24;;;;;;;3.42;2.53;;;25.30;67.40;;;;;;5052229;28;20029;-51
2022/08/18 05:56:45;;;;;;;6.72;2.35;;;25.30;72.80;;;;;;5052410;28;20170;-47
2022/08/18 05:59:21;;;;;;;8.85;2.47;;;25.30;72.90;;;;;;5052008;28;20025;-47
2022/08/18 06:01:54;;;;;;;7.20;2.53;;;25.50;73.00;;;;;;5051936;28;20056;-48
2022/08/18 06:04:34;;;;;;;4.63;2.78;;;25.40;67.60;;;;;;5051826;28;20055;-47
2022/08/18 06:07:01;;;;;;;;;;;25.40;74.10;;;;;;5052433;28;20029;-46
2022/08/18 06:09:27;;;;;;;5.65;2.95;;;;;;;;;;5052000;28;20248;-48
2022/08/18 06:12:03;;;;;;;8.05;2.90;;;25.20;73.00;;;;;;5051937;28;20028;-48
2022/08/18 06:14:30;;;;;;;5.75;2.90;;;;;;;;;;5051946;28;20387;-48
2022/08/18 06:17:22;;;;;;;6.65;2.97;;;25.20;73.00;;;;;;5052121;28;20053;-48
2022/08/18 06:20:02;;;;;;;3.72;2.78;;;25.40;73.20;;;;;;5051866;28;20541;-46
2022/08/18 06:22:55;;;;;;;9.20;2.80;;;25.40;67.40;;;;;;5051770;28;20110;-47
2022/08/18 06:26:05;;;;;;;3.40;2.53;;;25.30;67.00;;;;;;5051812;28;20018;-47
2022/08/18 06:28:46;;;;;;;3.78;2.10;;;25.30;72.40;;;;;;5014225;28;20086;-47
2022/08/18 06:31:21;;;;;;;3.47;2.33;;;25.40;67.00;;;;;;5051733;28;20096;-47
2022/08/18 06:33:49;;;;;;;4.85;2.60;;;;;;;;;;5051690;28;20434;-47
2022/08/18 06:36:57;;;;;;;3.78;2.58;;;25.20;67.30;;;;;;5051694;28;20013;-47
2022/08/18 06:39:38;;;;;;;6.13;2.63;;;25.30;67.40;;;;;;5012001;28;20037;-48
2022/08/18 06:42:04;;;;;;;4.65;3.08;;;;;;;;;;5051630;28;20287;-47
2022/08/18 06:44:50;;;;;;;4.53;2.67;;;25.40;67.50;;;;;;5051568;28;20032;-47
2022/08/18 06:47:42;;;;;;;3.78;2.75;;;25.40;67.80;;;;;;5051849;28;20033;-47
2022/08/18 06:50:18;;;;;;;8.32;3.05;;;25.50;67.80;;;;;;5053029;28;20059;-47
2022/08/18 06:52:53;;;;;;;4.38;2.45;;;25.40;67.60;;;;;;5055332;28;20453;-46
2022/08/18 06:55:31;;;;;;;4.43;2.80;;;25.40;73.10;;;;;;5055260;28;20025;-48
2022/08/18 06:58:00;;;;;;;4.80;2.60;;;25.40;73.20;;;;;;5055318;28;20032;-47
2022/08/18 07:00:29;;;;;;;6.15;2.35;;;25.90;73.60;;;;;;5055094;28;20048;-48
2022/08/18 07:02:56;;;;;;;2.92;2.42;;;;;;;;;;5054753;28;20057;-47
2022/08/18 07:05:22;;;;;;;4.13;2.42;;;;;;;;;;5055062;28;20082;-47
2022/08/18 07:08:02;;;;;;;2.33;2.13;;;25.50;67.70;;;;;;5055139;28;20029;-47
2022/08/18 07:10:33;;;;;;;4.18;2.30;;;25.50;73.20;;;;;;5055052;28;20017;-46
2022/08/18 07:13:06;;;;;;;4.15;2.88;;;25.50;67.50;;;;;;5055010;28;20032;-47
2022/08/18 07:15:32;;;;;;;5.10;2.70;;;;;;;;;;5054908;28;20025;-47
2022/08/18 07:18:07;;;;;;;4.65;3.08;;;25.50;67.60;;;;;;5054921;28;20075;-47
2022/08/18 07:20:46;;;;;;;6.55;2.60;;;25.50;67.50;;;;;;5054675;28;20035;-47
2022/08/18 07:23:33;;;;;;;2.87;2.60;;;25.60;68.10;;;;;;5054847;28;20020;-47
2022/08/18 07:26:12;;;;;;;2.85;2.65;;;25.50;67.60;;;;;;5054765;28;20498;-47
2022/08/18 07:28:40;;;;;;;3.35;2.53;;;25.50;73.10;;;;;;5054736;28;20017;-46
2022/08/18 07:31:08;;;;;;;2.97;2.47;;;25.50;73.10;;;;;;5054726;28;20021;-46
2022/08/18 07:33:35;;;;;;;4.97;2.20;;;25.50;73.20;;;;;;5054513;28;20035;-46
2022/08/18 07:36:05;;;;;;;3.33;2.60;;;25.50;73.30;;;;;;5054766;28;20029;-46
2022/08/18 07:38:38;;;;;;;4.60;2.85;;;25.50;73.20;;;;;;5054493;28;20100;-47
2022/08/18 07:41:12;;;;;;;5.80;3.03;;;25.50;67.70;;;;;;5054451;28;20064;-46
2022/08/18 07:44:04;;;;;;;3.28;2.47;;;25.50;67.80;;;;;;5054665;28;20106;-46
2022/08/18 07:46:30;;;;;;;4.97;3.03;;;;;;;;;;5054307;28;20037;-47
2022/08/18 07:48:58;;;;;;;4.97;2.67;;;;;;;;;;5036318;28;20086;-47
2022/08/18 07:51:28;;;;;;;2.60;2.40;;;25.60;73.00;;;;;;5054025;28;20109;-47
2022/08/18 07:54:16;;;;;;;3.03;2.50;;;25.60;67.40;;;;;;5054100;28;20025;-47
2022/08/18 07:57:09;;;;;;;3.70;2.42;;;25.60;67.70;;;;;;5053707;28;20033;-49
2022/08/18 07:59:35;;;;;;;2.80;2.30;;;;;;;;;;5053841;28;20029;-54
2022/08/18 08:02:38;;;;;;;4.03;2.13;;;25.60;67.70;;;;;;5053423;28;20029;-51
2022/08/18 08:05:04;;;;;;;4.30;2.38;;;;;;;;;;5053659;28;20124;-51
2022/08/18 08:07:39;;;;;;;3.35;2.58;;;25.60;73.20;;;;;;5053607;28;20052;-49
2022/08/18 08:10:32;;;;;;;2.70;2.38;;;25.60;67.60;;;;;;5053679;28;20029;-49
2022/08/18 08:13:36;;;;;;;2.30;2.10;;;25.70;67.70;;;;;;5053770;28;20032;-49
2022/08/18 08:16:02;;;;;;;2.78;2.30;;;;;;;;;;5053497;28;20040;-51
2022/08/18 08:18:28;;;;;;;2.83;2.20;;;;;;;;;;5053601;28;20017;-52
2022/08/18 08:20:57;;;;;;;3.63;2.30;;;25.60;73.10;;;;;;5053569;28;20037;-48
2022/08/18 08:24:00;;;;;;;2.33;2.13;;;25.60;67.50;;;;;;5053653;28;20017;-49
2022/08/18 08:27:08;;;;;;;2.33;2.13;;;25.60;67.60;;;;;;5053567;28;20049;-49
2022/08/18 08:29:54;;;;;;;2.67;2.47;;;25.50;67.80;;;;;;5042611;28;20454;-50
2022/08/18 08:32:58;;;;;;;3.17;2.10;;;25.70;67.40;;;;;;5053510;28;20065;-49
2022/08/18 08:35:32;;;;;;;4.90;2.50;;;25.70;67.40;;;;;;5040794;28;20040;-51
2022/08/18 08:38:03;;;;;;;2.53;2.30;;;25.80;72.80;;;;;;5053446;28;20028;-50
2022/08/18 08:40:51;;;;;;;2.58;2.38;;;25.80;67.40;;;;;;5053368;28;20029;-49
2022/08/18 08:43:24;;;;;;;3.22;2.30;;;25.80;72.70;;;;;;5053371;28;20079;-49
2022/08/18 08:46:09;;;;;;;2.15;2.00;;;25.90;72.70;;;;;;5053296;28;20032;-50
2022/08/18 08:48:41;;;;;;;2.38;2.17;;;25.90;72.40;;;;;;5053250;28;20028;-50
2022/08/18 08:51:41;;;;;;;4.63;2.40;;;25.90;66.80;;;;;;5053163;28;20033;-49
2022/08/18 08:54:16;;;;;;;2.72;2.30;;;26.00;66.90;;;;;;5053358;28;20391;-49
2022/08/18 08:56:46;;;;;;;2.67;2.22;;;26.00;72.20;;;;;;5053057;28;20021;-50
2022/08/18 08:59:16;;;;;;;2.92;2.08;;;26.00;72.30;;;;;;5053010;28;20017;-48
2022/08/18 09:02:02;;;;;;;2.53;1.85;;;25.90;66.60;;;;;;5052764;28;20033;-48
2022/08/18 09:04:37;;;;;;;2.50;2.30;;;26.10;66.70;;;;;;5052476;28;20053;-50
2022/08/18 09:07:46;;;;;;;2.85;2.10;;;26.10;66.80;;;;;;5052908;28;20052;-51
2022/08/18 09:10:44;;;;;;;2.50;2.30;;;26.10;66.60;;;;;;5015796;28;20033;-49
2022/08/18 09:13:10;;;;;;;4.95;1.98;;;;;;;;;;5052122;28;20087;-48
2022/08/18 09:16:04;;;;;;;3.20;2.08;;;26.30;66.40;;;;;;5052701;28;20427;-51
2022/08/18 09:18:48;;;;;;;2.63;1.95;;;26.20;66.40;;;;;;5052952;28;20052;-48
2022/08/18 09:21:34;;;;;;;3.35;1.98;;;26.40;66.30;;;;;;5052568;28;20475;-48
2022/08/18 09:24:19;;;;;;;2.75;1.98;;;26.20;66.10;;;;;;5052816;28;20033;-48
2022/08/18 09:27:14;;;;;;;2.83;1.90;;;26.40;66.10;;;;;;5052513;28;20020;-50
2022/08/18 09:29:58;;;;;;;3.70;1.80;;;26.40;66.00;;;;;;5034988;28;20120;-48
2022/08/18 09:32:24;;;;;;;2.10;1.90;;;;;;;;;;5052441;28;20082;-50
2022/08/18 09:34:56;;;;;;;2.53;2.00;;;26.40;65.70;;;;;;5052405;28;20029;-48
2022/08/18 09:37:28;;;;;;;3.65;2.25;;;26.50;71.30;;;;;;5052298;28;20515;-52
2022/08/18 09:43:06;;;;;;;2.38;2.08;;;26.40;71.20;;;;;;5052449;28;20051;-52
2022/08/18 09:45:32;;;;;;;3.28;2.42;;;;;;;;;;5052236;28;20021;-50
2022/08/18 09:48:05;;;;;;;2.40;2.20;;;26.40;65.60;;;;;;5052127;28;20036;-51
2022/08/18 09:50:35;;;;;;;2.35;2.15;;;26.50;71.20;;;;;;5052221;28;20017;-50
2022/08/18 09:53:42;;;;;;;2.00;1.90;;;26.50;71.20;;;;;;5052292;28;20069;-51
2022/08/18 09:56:08;;;;;;;2.35;1.90;;;;;;;;;;5049123;28;20035;-49
2022/08/18 09:58:52;;;;;;;3.10;1.88;;;26.40;65.40;;;;;;5052089;28;20025;-52
2022/08/18 10:01:33;;;;;;;2.67;2.08;;;26.50;65.40;;;;;;5051867;28;20040;-51
2022/08/18 10:04:13;;;;;;;3.63;2.10;;;26.60;65.30;;;;;;5051866;28;20116;-50
2022/08/18 10:06:40;;;;;;;2.20;2.08;;;26.70;70.80;;;;;;5052038;28;20029;-51
2022/08/18 10:09:23;;;;;;;3.45;2.08;;;26.70;70.70;;;;;;5051970;28;20017;-52
2022/08/18 10:12:08;;;;;;;2.25;2.05;;;26.70;65.00;;;;;;5052045;28;20017;-51
2022/08/18 10:15:13;;;;;;;2.03;1.92;;;26.70;65.00;;;;;;5051938;28;20283;-51
2022/08/18 10:18:08;;;;;;;3.28;2.28;;;26.70;65.00;;;;;;5051938;28;20013;-50
2022/08/18 10:21:07;;;;;;;2.67;2.20;;;26.70;64.70;;;;;;5051758;28;20029;-51
2022/08/18 10:23:58;;;;;;;2.53;2.33;;;26.80;64.80;;;;;;5052446;28;20035;-51
2022/08/18 10:26:29;;;;;;;;;;;26.70;65.60;;;;;;5056325;28;20029;-53
2022/08/18 10:28:57;;;;;;;5.28;1.98;;;26.70;70.30;;;;;;5055884;28;19911;-50
2022/08/18 10:31:24;;;;;;;2.00;1.90;;;;;;;;;;5055784;28;20021;-46
2022/08/18 10:34:02;;;;;;;3.70;2.17;;;26.70;64.60;;;;;;5055766;28;20148;-47
2022/08/18 10:36:40;;;;;;;2.58;1.80;;;26.80;64.80;;;;;;5037753;28;20567;-48
2022/08/18 10:39:13;;;;;;;2.65;2.25;;;26.70;64.60;;;;;;5055682;28;20027;-49
2022/08/18 10:41:57;;;;;;;2.28;2.08;;;27.10;70.40;;;;;;5037456;28;20499;-48
2022/08/18 10:44:23;;;;;;;1.98;1.88;;;;;;;;;;5055503;28;20032;-50
2022/08/18 10:46:51;;;;;;;2.00;1.90;;;26.70;69.70;;;;;;5055456;28;20025;-51
2022/08/18 10:49:24;;;;;;;1.88;1.77;;;26.80;64.70;;;;;;5037526;28;20029;-49
2022/08/18 10:52:11;;;;;;;2.15;1.92;;;26.80;64.60;;;;;;5055452;28;20487;-49
2022/08/18 10:55:01;;;;;;;1.92;1.75;;;26.80;64.40;;;;;;5055397;28;20036;-50
2022/08/18 10:58:06;;;;;;;2.15;1.98;;;26.80;64.40;;;;;;5055557;28;20032;-49
2022/08/18 11:00:50;;;;;;;2.97;1.67;;;26.90;64.30;;;;;;5024257;28;20071;-53
2022/08/18 11:03:53;;;;;;;2.28;2.05;;;26.90;64.30;;;;;;5054933;28;20055;-53
2022/08/18 11:06:23;;;;;;;2.00;1.90;;;26.90;69.80;;;;;;5055096;28;20029;-51
2022/08/18 11:08:50;;;;;;;;;;;27.00;70.70;;;;;;5055560;28;20025;-51
2022/08/18 11:11:22;;;;;;;2.15;2.00;;;27.00;69.80;;;;;;5055205;28;19905;-52
2022/08/18 11:13:47;;;;;;;2.20;1.98;;;;;;;;;;5055125;28;20024;-54
2022/08/18 11:16:29;;;;;;;2.22;1.95;;;26.90;69.80;;;;;;5054977;28;20025;-53
2022/08/18 11:19:03;;;;;;;2.75;1.90;;;26.80;69.60;;;;;;5055255;28;20032;-53
2022/08/18 11:21:34;;;;;;;2.72;2.15;;;27.10;64.50;;;;;;5054754;28;20040;-52
2022/08/18 11:24:23;;;;;;;2.00;1.85;;;26.90;64.10;;;;;;5054905;28;20150;-53
2022/08/18 11:26:52;;;;;;;2.33;1.80;;;26.90;69.70;;;;;;5054119;28;20037;-54
2022/08/18 11:29:27;;;;;;;2.05;1.85;;;26.90;64.10;;;;;;5054639;28;20032;-49
2022/08/18 11:31:59;;;;;;;1.70;1.60;;;26.90;69.70;;;;;;5054629;28;20395;-52
2022/08/18 11:34:37;;;;;;;2.00;1.80;;;26.90;64.20;;;;;;5054844;28;20028;-50
2022/08/18 11:37:18;;;;;;;1.80;1.48;;;26.90;64.20;;;;;;5053964;28;20021;-52
2022/08/18 11:39:49;;;;;;;2.03;1.92;;;26.40;63.70;;;;;;5054468;28;20029;-52
2022/08/18 11:42:18;;;;;;;1.95;1.80;;;26.90;69.80;;;;;;5054452;28;20045;-52
2022/08/18 11:44:45;;;;;;;1.98;1.73;;;26.90;69.40;;;;;;5054432;28;20096;-51
2022/08/18 11:47:19;;;;;;;1.67;1.58;;;26.90;63.90;;;;;;5054247;28;20025;-49
2022/08/18 11:50:11;;;;;;;1.77;1.55;;;26.90;63.90;;;;;;5054541;28;20013;-51
2022/08/18 11:52:49;;;;;;;1.77;1.67;;;26.90;63.90;;;;;;5053780;28;20044;-53
2022/08/18 11:55:32;;;;;;;1.95;1.75;;;27.00;63.90;;;;;;5054235;28;20021;-53
2022/08/18 11:57:58;;;;;;;2.35;2.22;;;;;;;;;;5054183;28;20104;-49
2022/08/18 12:00:47;;;;;;;1.75;1.58;;;26.90;63.80;;;;;;5054144;28;20064;-50
2022/08/18 12:03:18;;;;;;;1.60;1.50;;;26.90;64.00;;;;;;5053871;28;20068;-49
2022/08/18 12:05:44;;;;;;;1.70;1.60;;;;;;;;;;5053977;28;20028;-51
2022/08/18 12:08:27;;;;;;;1.65;1.55;;;27.00;64.00;;;;;;5053947;28;20033;-50
2022/08/18 12:11:15;;;;;;;1.70;1.60;;;26.90;63.90;;;;;;5053901;28;20032;-53
2022/08/18 12:13:46;;;;;;;1.98;1.65;;;26.90;63.80;;;;;;5053732;28;20036;-51
2022/08/18 12:16:14;;;;;;;1.40;1.40;;;26.80;69.40;;;;;;5053864;28;20451;-50
2022/08/18 12:18:40;;;;;;;1.80;1.70;;;;;;;;;;5053828;28;20494;-51
2022/08/18 12:21:06;;;;;;;2.03;1.67;;;;;;;;;;5053726;28;20041;-53
2022/08/18 12:23:34;;;;;;;1.90;1.52;;;26.90;69.50;;;;;;5053752;28;20025;-50
2022/08/18 12:25:59;;;;;;;1.88;1.77;;;;;;;;;;5053953;28;20021;-50
2022/08/18 12:28:26;;;;;;;1.42;1.33;;;;;;;;;;5053618;28;20491;-51
2022/08/18 12:30:52;;;;;;;1.50;1.40;;;;;;;;;;5053562;28;20082;-51
2022/08/18 12:33:18;;;;;;;1.45;1.35;;;;;;;;;;5053590;28;20025;-53
2022/08/18 12:35:44;;;;;;;2.63;1.63;;;;;;;;;;5053421;28;20031;-50
2022/08/18 12:38:12;;;;;;;1.80;1.70;;;26.90;69.50;;;;;;5053453;28;20052;-51
2022/08/18 12:40:38;;;;;;;1.67;1.48;;;;;;;;;;5053306;28;20028;-49
2022/08/18 12:43:04;;;;;;;1.95;1.67;;;;;;;;;;5053317;28;20052;-53
2022/08/18 12:45:30;;;;;;;2.20;1.80;;;;;;;;;;5053300;28;20040;-50
2022/08/18 12:47:58;;;;;;;1.75;1.65;;;;;;;;;;5052233;28;20166;-50
2022/08/18 12:50:24;;;;;;;2.10;1.90;;;;;;;;;;5053223;28;20025;-53
2022/08/18 12:52:50;;;;;;;2.17;1.80;;;;;;;;;;5053048;28;20039;-54
2022/08/18 12:55:17;;;;;;;1.88;1.70;;;;;;;;;;5053071;28;20028;-51
2022/08/18 12:57:43;;;;;;;1.60;1.50;;;;;;;;;;5053403;28;20049;-51
2022/08/18 13:00:10;;;;;;;1.55;1.45;;;;;;;;;;5052915;28;20439;-53
2022/08/18 13:02:36;;;;;;;1.45;1.35;;;;;;;;;;5052575;28;20036;-51
2022/08/18 13:05:02;;;;;;;1.55;1.45;;;;;;;;;;5053228;28;20021;-53
2022/08/18 13:07:30;;;;;;;1.52;1.42;;;;;;;;;;5052822;28;20539;-53
2022/08/18 13:09:56;;;;;;;1.52;1.20;;;;;;;;;;5052835;28;20156;-52
2022/08/18 13:12:24;;;;;;;1.45;1.35;;;27.00;68.10;;;;;;5052822;28;20527;-54
2022/08/18 13:14:53;;;;;;;1.50;1.40;;;;;;;;;;5052838;28;20468;-52
2022/08/18 13:17:19;;;;;;;1.93;1.80;;;;;;;;;;5052707;28;20063;-52
2022/08/18 13:19:46;;;;;;;3.08;1.55;;;;;;;;;;5052648;28;20032;-54
2022/08/18 13:22:12;;;;;;;1.55;1.45;;;;;;;;;;5052568;28;20033;-49
2022/08/18 13:24:38;;;;;;;1.48;1.38;;;;;;;;;;5052794;28;20035;-52
2022/08/18 13:27:04;;;;;;;1.58;1.48;;;;;;;;;;5052467;28;20056;-51
2022/08/18 13:29:30;;;;;;;2.63;1.42;;;;;;;;;;5052538;28;20033;-52
2022/08/18 13:31:57;;;;;;;1.75;1.50;;;;;;;;;;5052512;28;20032;-53
2022/08/18 13:34:26;;;;;;;1.52;1.42;;;27.10;69.50;;;;;;5052741;28;20055;-51
2022/08/18 13:36:53;;;;;;;2.10;1.73;;;;;;;;;;5052376;28;20446;-54
2022/08/18 13:39:21;;;;;;;1.52;1.42;;;27.00;69.80;;;;;;5052261;28;20025;-52
2022/08/18 13:41:50;;;;;;;2.13;1.83;;;27.00;69.50;;;;;;5052214;28;20025;-51
2022/08/18 13:44:17;;;;;;;1.60;1.50;;;;;;;;;;5052520;28;20386;-52
2022/08/18 13:46:46;;;;;;;1.70;1.50;;;;;;;;;;5052324;28;20025;-53
2022/08/18 13:49:20;;;;;;;1.63;1.52;;;26.90;63.90;;;;;;5052165;28;20059;-54
2022/08/18 13:51:48;;;;;;;2.00;1.45;;;26.90;69.60;;;;;;5052444;28;20078;-49
2022/08/18 13:54:23;;;;;;;2.00;1.60;;;26.80;64.10;;;;;;5051991;28;20021;-53
2022/08/18 13:56:49;;;;;;;1.63;1.52;;;;;;;;;;5052008;28;20159;-52
2022/08/18 13:59:16;;;;;;;1.63;1.52;;;26.90;69.60;;;;;;5051673;28;20021;-53
2022/08/18 14:01:44;;;;;;;1.42;1.33;;;;;;;;;;5051836;28;20116;-52
2022/08/18 14:04:11;;;;;;;1.50;1.40;;;;;;;;;;5051858;28;20119;-52
2022/08/18 14:06:37;;;;;;;1.92;1.20;;;;;;;;;;5051966;28;20043;-53
2022/08/18 14:09:03;;;;;;;1.50;1.40;;;;;;;;;;5052286;28;20032;-51